sensor_id;sensor_type;location;lat;lon;timestamp;pressure;altitude;pressure_sealevel;temperature;humidity
62978;BME280;49073;42.352;23.808;2023-04-05T00:00:12;94056.72;;;1.20;87.63
62978;BME280;49073;42.352;23.808;2023-04-05T00:03:14;94059.03;;;1.21;87.32
62978;BME280;49073;42.352;23.808;2023-04-05T00:06:18;94053.78;;;1.21;87.28
62978;BME280;49073;42.352;23.808;2023-04-05T00:09:21;94056.56;;;1.25;87.15
62978;BME280;49073;42.352;23.808;2023-04-05T00:12:21;94052.56;;;1.27;86.93
62978;BME280;49073;42.352;23.808;2023-04-05T00:15:22;94055.19;;;1.27;86.38
62978;BME280;49073;42.352;23.808;2023-04-05T00:18:24;94046.84;;;1.25;86.22
62978;BME280;49073;42.352;23.808;2023-04-05T00:21:25;94058.69;;;1.14;86.22
62978;BME280;49073;42.352;23.808;2023-04-05T00:24:25;94055.16;;;1.10;86.95
62978;BME280;49073;42.352;23.808;2023-04-05T00:27:28;94053.16;;;1.15;86.87
62978;BME280;49073;42.352;23.808;2023-04-05T00:30:29;94055.94;;;1.28;86.61
62978;BME280;49073;42.352;23.808;2023-04-05T00:33:30;94059.78;;;1.39;86.11
62978;BME280;49073;42.352;23.808;2023-04-05T00:36:30;94059.34;;;1.46;85.06
62978;BME280;49073;42.352;23.808;2023-04-05T00:39:31;94057.78;;;1.45;85.11
62978;BME280;49073;42.352;23.808;2023-04-05T00:42:32;94065.50;;;1.41;84.17
62978;BME280;49073;42.352;23.808;2023-04-05T00:45:32;94063.06;;;1.27;83.50
62978;BME280;49073;42.352;23.808;2023-04-05T00:48:34;94060.72;;;1.26;83.91
62978;BME280;49073;42.352;23.808;2023-04-05T00:51:35;94056.53;;;1.16;83.85
62978;BME280;49073;42.352;23.808;2023-04-05T00:54:37;94058.41;;;1.15;83.96
62978;BME280;49073;42.352;23.808;2023-04-05T00:57:38;94056.72;;;1.20;83.76
62978;BME280;49073;42.352;23.808;2023-04-05T01:00:39;94055.94;;;1.10;83.65
62978;BME280;49073;42.352;23.808;2023-04-05T01:03:45;94057.47;;;1.02;84.63
62978;BME280;49073;42.352;23.808;2023-04-05T01:10:09;94056.84;;;1.06;85.04
62978;BME280;49073;42.352;23.808;2023-04-05T01:13:10;94063.47;;;1.12;85.33
62978;BME280;49073;42.352;23.808;2023-04-05T01:16:11;94066.09;;;1.12;85.35
62978;BME280;49073;42.352;23.808;2023-04-05T01:19:12;94063.47;;;1.12;85.02
62978;BME280;49073;42.352;23.808;2023-04-05T01:32:54;94065.94;;;0.99;84.74
62978;BME280;49073;42.352;23.808;2023-04-05T01:39:16;94071.03;;;1.05;85.05
62978;BME280;49073;42.352;23.808;2023-04-05T01:42:24;94072.16;;;1.12;84.64
62978;BME280;49073;42.352;23.808;2023-04-05T01:45:24;94079.06;;;1.17;85.20
62978;BME280;49073;42.352;23.808;2023-04-05T01:48:25;94079.53;;;1.01;84.53
62978;BME280;49073;42.352;23.808;2023-04-05T01:51:26;94079.06;;;0.99;84.67
62978;BME280;49073;42.352;23.808;2023-04-05T01:54:27;94069.66;;;1.07;84.76
62978;BME280;49073;42.352;23.808;2023-04-05T01:57:28;94075.69;;;1.08;84.42
62978;BME280;49073;42.352;23.808;2023-04-05T02:00:29;94083.28;;;1.18;84.03
62978;BME280;49073;42.352;23.808;2023-04-05T02:03:30;94085.75;;;1.23;83.92
62978;BME280;49073;42.352;23.808;2023-04-05T02:06:31;94080.31;;;1.11;83.63
62978;BME280;49073;42.352;23.808;2023-04-05T02:09:31;94080.94;;;1.16;83.59
62978;BME280;49073;42.352;23.808;2023-04-05T02:12:33;94086.94;;;1.17;84.41
62978;BME280;49073;42.352;23.808;2023-04-05T02:15:33;94085.41;;;1.16;84.38
62978;BME280;49073;42.352;23.808;2023-04-05T02:18:36;94077.22;;;1.09;84.59
62978;BME280;49073;42.352;23.808;2023-04-05T02:21:37;94085.25;;;1.12;84.88
62978;BME280;49073;42.352;23.808;2023-04-05T02:24:40;94087.09;;;1.12;85.14
62978;BME280;49073;42.352;23.808;2023-04-05T02:27:40;94082.03;;;1.24;84.41
62978;BME280;49073;42.352;23.808;2023-04-05T02:30:41;94090.22;;;1.32;84.51
62978;BME280;49073;42.352;23.808;2023-04-05T02:33:41;94086.81;;;1.40;84.13
62978;BME280;49073;42.352;23.808;2023-04-05T02:36:42;94080.78;;;1.39;84.06
62978;BME280;49073;42.352;23.808;2023-04-05T02:39:43;94081.25;;;1.50;84.14
62978;BME280;49073;42.352;23.808;2023-04-05T02:42:43;94074.47;;;1.49;83.47
62978;BME280;49073;42.352;23.808;2023-04-05T02:45:44;94081.56;;;1.57;83.50
62978;BME280;49073;42.352;23.808;2023-04-05T02:48:46;94080.81;;;1.57;82.84
62978;BME280;49073;42.352;23.808;2023-04-05T02:51:46;94080.34;;;1.46;82.16
62978;BME280;49073;42.352;23.808;2023-04-05T02:54:47;94070.28;;;1.39;82.37
62978;BME280;49073;42.352;23.808;2023-04-05T02:57:48;94068.44;;;1.22;82.26
62978;BME280;49073;42.352;23.808;2023-04-05T03:00:50;94069.53;;;1.21;82.68
62978;BME280;49073;42.352;23.808;2023-04-05T03:03:51;94064.56;;;1.20;83.22
62978;BME280;49073;42.352;23.808;2023-04-05T03:06:51;94060.69;;;1.17;82.88
62978;BME280;49073;42.352;23.808;2023-04-05T03:09:54;94061.19;;;1.19;83.48
62978;BME280;49073;42.352;23.808;2023-04-05T03:12:54;94067.81;;;1.16;82.65
62978;BME280;49073;42.352;23.808;2023-04-05T03:15:55;94066.44;;;1.28;82.32
62978;BME280;49073;42.352;23.808;2023-04-05T03:18:55;94073.56;;;1.27;82.41
62978;BME280;49073;42.352;23.808;2023-04-05T03:21:56;94074.63;;;1.26;82.53
62978;BME280;49073;42.352;23.808;2023-04-05T03:24:57;94077.88;;;1.23;81.93
62978;BME280;49073;42.352;23.808;2023-04-05T03:27:58;94070.78;;;1.33;81.93
62978;BME280;49073;42.352;23.808;2023-04-05T03:30:59;94072.78;;;1.36;81.59
62978;BME280;49073;42.352;23.808;2023-04-05T03:33:59;94082.50;;;1.44;82.30
62978;BME280;49073;42.352;23.808;2023-04-05T03:37:00;94082.50;;;1.53;81.54
62978;BME280;49073;42.352;23.808;2023-04-05T03:40:00;94081.25;;;1.59;82.48
62978;BME280;49073;42.352;23.808;2023-04-05T03:43:01;94081.41;;;1.45;80.46
62978;BME280;49073;42.352;23.808;2023-04-05T03:46:02;94078.34;;;1.43;80.79
62978;BME280;49073;42.352;23.808;2023-04-05T03:49:03;94085.59;;;1.46;80.67
62978;BME280;49073;42.352;23.808;2023-04-05T03:52:03;94093.78;;;1.53;80.07
62978;BME280;49073;42.352;23.808;2023-04-05T03:55:05;94096.06;;;1.64;79.92
62978;BME280;49073;42.352;23.808;2023-04-05T03:58:05;94102.25;;;1.68;80.48
62978;BME280;49073;42.352;23.808;2023-04-05T04:01:06;94092.81;;;1.76;79.78
62978;BME280;49073;42.352;23.808;2023-04-05T04:04:07;94099.34;;;1.78;80.20
62978;BME280;49073;42.352;23.808;2023-04-05T04:07:08;94109.34;;;1.85;79.71
62978;BME280;49073;42.352;23.808;2023-04-05T04:10:12;94114.47;;;1.72;79.39
62978;BME280;49073;42.352;23.808;2023-04-05T04:13:13;94107.81;;;1.57;79.74
62978;BME280;49073;42.352;23.808;2023-04-05T04:16:14;94111.06;;;1.54;79.89
62978;BME280;49073;42.352;23.808;2023-04-05T04:19:18;94113.09;;;1.49;79.53
62978;BME280;49073;42.352;23.808;2023-04-05T04:22:18;94117.56;;;1.48;79.93
62978;BME280;49073;42.352;23.808;2023-04-05T04:25:19;94119.88;;;1.50;80.74
62978;BME280;49073;42.352;23.808;2023-04-05T04:28:21;94119.88;;;1.41;81.70
62978;BME280;49073;42.352;23.808;2023-04-05T04:31:24;94127.13;;;1.44;81.52
62978;BME280;49073;42.352;23.808;2023-04-05T04:34:24;94125.59;;;1.52;81.13
62978;BME280;49073;42.352;23.808;2023-04-05T04:37:25;94136.84;;;1.52;80.17
62978;BME280;49073;42.352;23.808;2023-04-05T04:40:33;94133.59;;;1.47;80.53
62978;BME280;49073;42.352;23.808;2023-04-05T04:43:40;94138.09;;;1.46;80.83
62978;BME280;49073;42.352;23.808;2023-04-05T04:46:44;94133.47;;;1.43;80.64
62978;BME280;49073;42.352;23.808;2023-04-05T04:49:44;94140.56;;;1.51;81.41
62978;BME280;49073;42.352;23.808;2023-04-05T04:52:45;94140.28;;;1.53;81.32
62978;BME280;49073;42.352;23.808;2023-04-05T04:55:46;94147.22;;;1.49;81.23
62978;BME280;49073;42.352;23.808;2023-04-05T04:58:51;94137.19;;;1.51;81.05
62978;BME280;49073;42.352;23.808;2023-04-05T05:01:52;94141.81;;;1.54;81.07
62978;BME280;49073;42.352;23.808;2023-04-05T05:04:53;94151.72;;;1.57;80.70
62978;BME280;49073;42.352;23.808;2023-04-05T05:07:54;94155.41;;;1.47;80.08
62978;BME280;49073;42.352;23.808;2023-04-05T05:10:54;94160.19;;;1.63;80.44
62978;BME280;49073;42.352;23.808;2023-04-05T05:13:55;94150.78;;;1.70;81.00
62978;BME280;49073;42.352;23.808;2023-04-05T05:16:55;94157.72;;;1.66;79.83
62978;BME280;49073;42.352;23.808;2023-04-05T05:19:58;94154.78;;;1.68;79.90
62978;BME280;49073;42.352;23.808;2023-04-05T05:23:04;94158.63;;;1.62;79.56
62978;BME280;49073;42.352;23.808;2023-04-05T05:26:05;94165.28;;;1.68;79.53
62978;BME280;49073;42.352;23.808;2023-04-05T05:29:05;94164.22;;;1.78;79.80
62978;BME280;49073;42.352;23.808;2023-04-05T05:32:07;94165.94;;;1.82;79.99
62978;BME280;49073;42.352;23.808;2023-04-05T05:35:08;94163.47;;;1.77;79.74
62978;BME280;49073;42.352;23.808;2023-04-05T05:38:09;94168.53;;;1.91;79.63
62978;BME280;49073;42.352;23.808;2023-04-05T05:41:10;94168.53;;;1.91;79.04
62978;BME280;49073;42.352;23.808;2023-04-05T05:44:10;94164.81;;;1.92;79.06
62978;BME280;49073;42.352;23.808;2023-04-05T05:47:11;94165.59;;;1.93;79.09
62978;BME280;49073;42.352;23.808;2023-04-05T05:50:12;94158.34;;;1.81;78.75
62978;BME280;49073;42.352;23.808;2023-04-05T05:53:12;94155.41;;;1.82;78.75
62978;BME280;49073;42.352;23.808;2023-04-05T05:56:13;94161.13;;;1.84;78.12
62978;BME280;49073;42.352;23.808;2023-04-05T05:59:14;94169.31;;;1.92;77.25
62978;BME280;49073;42.352;23.808;2023-04-05T06:02:15;94161.44;;;1.92;76.73
62978;BME280;49073;42.352;23.808;2023-04-05T06:05:16;94159.56;;;1.92;77.04
62978;BME280;49073;42.352;23.808;2023-04-05T06:08:18;94164.38;;;1.99;77.76
62978;BME280;49073;42.352;23.808;2023-04-05T06:11:19;94164.34;;;1.90;76.08
62978;BME280;49073;42.352;23.808;2023-04-05T06:14:21;94163.31;;;1.82;75.65
62978;BME280;49073;42.352;23.808;2023-04-05T06:17:21;94159.25;;;1.85;76.17
62978;BME280;49073;42.352;23.808;2023-04-05T06:20:22;94164.38;;;1.99;76.31
62978;BME280;49073;42.352;23.808;2023-04-05T06:23:23;94164.81;;;2.01;75.78
62978;BME280;49073;42.352;23.808;2023-04-05T06:26:24;94173.63;;;2.05;76.21
62978;BME280;49073;42.352;23.808;2023-04-05T06:29:26;94174.72;;;1.86;74.29
62978;BME280;49073;42.352;23.808;2023-04-05T06:32:26;94181.22;;;1.89;75.35
62978;BME280;49073;42.352;23.808;2023-04-05T06:35:27;94182.47;;;1.92;73.70
62978;BME280;49073;42.352;23.808;2023-04-05T06:38:28;94181.06;;;1.85;73.47
62978;BME280;49073;42.352;23.808;2023-04-05T06:41:28;94183.84;;;1.80;73.03
62978;BME280;49073;42.352;23.808;2023-04-05T06:44:29;94194.03;;;1.82;73.08
62978;BME280;49073;42.352;23.808;2023-04-05T06:47:33;94196.69;;;1.91;73.32
62978;BME280;49073;42.352;23.808;2023-04-05T06:50:34;94197.91;;;1.84;72.58
62978;BME280;49073;42.352;23.808;2023-04-05T06:53:35;94195.28;;;1.76;73.47
62978;BME280;49073;42.352;23.808;2023-04-05T06:56:36;94204.53;;;1.64;72.73
62978;BME280;49073;42.352;23.808;2023-04-05T06:59:36;94208.25;;;1.89;73.76
62978;BME280;49073;42.352;23.808;2023-04-05T07:02:37;94209.81;;;1.91;72.49
62978;BME280;49073;42.352;23.808;2023-04-05T07:05:38;94205.31;;;1.91;71.88
62978;BME280;49073;42.352;23.808;2023-04-05T07:08:38;94206.56;;;1.85;70.90
62978;BME280;49073;42.352;23.808;2023-04-05T07:11:39;94215.81;;;1.91;71.91
62978;BME280;49073;42.352;23.808;2023-04-05T07:14:40;94213.84;;;1.97;71.05
62978;BME280;49073;42.352;23.808;2023-04-05T07:17:40;94217.38;;;2.01;71.33
62978;BME280;49073;42.352;23.808;2023-04-05T07:20:41;94226.94;;;2.06;71.27
62978;BME280;49073;42.352;23.808;2023-04-05T07:23:42;94239.63;;;2.03;70.82
62978;BME280;49073;42.352;23.808;2023-04-05T07:26:43;94244.44;;;2.19;71.36
62978;BME280;49073;42.352;23.808;2023-04-05T07:29:44;94238.53;;;2.31;71.34
62978;BME280;49073;42.352;23.808;2023-04-05T07:32:46;94237.63;;;2.36;71.56
62978;BME280;49073;42.352;23.808;2023-04-05T07:35:51;94236.69;;;2.31;71.02
62978;BME280;49073;42.352;23.808;2023-04-05T07:38:53;94242.09;;;2.53;71.22
62978;BME280;49073;42.352;23.808;2023-04-05T07:41:53;94249.19;;;2.70;72.90
62978;BME280;49073;42.352;23.808;2023-04-05T07:44:54;94243.31;;;2.64;70.59
62978;BME280;49073;42.352;23.808;2023-04-05T07:47:55;94256.28;;;2.78;72.42
62978;BME280;49073;42.352;23.808;2023-04-05T07:50:55;94252.69;;;2.83;71.02
62978;BME280;49073;42.352;23.808;2023-04-05T07:53:56;94256.69;;;2.98;71.66
62978;BME280;49073;42.352;23.808;2023-04-05T07:56:58;94256.50;;;3.03;72.15
62978;BME280;49073;42.352;23.808;2023-04-05T08:00:00;94260.78;;;3.25;72.52
62978;BME280;49073;42.352;23.808;2023-04-05T08:03:00;94260.03;;;3.16;73.34
62978;BME280;49073;42.352;23.808;2023-04-05T08:06:12;94267.81;;;3.03;72.88
62978;BME280;49073;42.352;23.808;2023-04-05T08:09:13;94261.31;;;3.01;73.27
62978;BME280;49073;42.352;23.808;2023-04-05T08:12:14;94258.59;;;3.27;74.13
62978;BME280;49073;42.352;23.808;2023-04-05T08:15:14;94265.84;;;3.39;70.61
62978;BME280;49073;42.352;23.808;2023-04-05T08:18:15;94273.13;;;3.33;71.49
62978;BME280;49073;42.352;23.808;2023-04-05T08:21:16;94272.84;;;3.26;70.99
62978;BME280;49073;42.352;23.808;2023-04-05T08:24:16;94279.03;;;3.30;73.04
62978;BME280;49073;42.352;23.808;2023-04-05T08:27:17;94272.22;;;3.29;72.65
62978;BME280;49073;42.352;23.808;2023-04-05T08:30:18;94272.22;;;3.29;71.88
62978;BME280;49073;42.352;23.808;2023-04-05T08:33:19;94278.63;;;3.49;72.03
62978;BME280;49073;42.352;23.808;2023-04-05T08:36:19;94281.56;;;3.48;71.04
62978;BME280;49073;42.352;23.808;2023-04-05T08:39:20;94279.06;;;3.60;71.00
62978;BME280;49073;42.352;23.808;2023-04-05T08:42:34;94278.69;;;3.71;70.48
62978;BME280;49073;42.352;23.808;2023-04-05T08:45:45;94280.94;;;3.51;71.05
62978;BME280;49073;42.352;23.808;2023-04-05T08:48:46;94288.97;;;3.63;69.82
62978;BME280;49073;42.352;23.808;2023-04-05T08:51:47;94286.28;;;3.42;68.94
62978;BME280;49073;42.352;23.808;2023-04-05T08:54:48;94277.72;;;3.45;70.36
62978;BME280;49073;42.352;23.808;2023-04-05T08:57:52;94291.94;;;3.53;69.86
62978;BME280;49073;42.352;23.808;2023-04-05T09:00:54;94289.94;;;3.80;71.30
62978;BME280;49073;42.352;23.808;2023-04-05T09:03:59;94291.47;;;3.90;69.90
62978;BME280;49073;42.352;23.808;2023-04-05T09:07:04;94301.28;;;4.02;69.23
62978;BME280;49073;42.352;23.808;2023-04-05T09:10:06;94302.75;;;3.90;69.71
62978;BME280;49073;42.352;23.808;2023-04-05T09:13:07;94299.94;;;3.96;69.13
62978;BME280;49073;42.352;23.808;2023-04-05T09:16:08;94300.94;;;3.82;69.36
62978;BME280;49073;42.352;23.808;2023-04-05T09:19:09;94303.44;;;4.08;69.34
62978;BME280;49073;42.352;23.808;2023-04-05T09:22:10;94299.75;;;4.01;67.99
62978;BME280;49073;42.352;23.808;2023-04-05T09:28:40;94300.41;;;3.68;67.75
62978;BME280;49073;42.352;23.808;2023-04-05T09:31:44;94295.91;;;3.68;67.99
62978;BME280;49073;42.352;23.808;2023-04-05T09:34:44;94306.31;;;3.64;67.01
62978;BME280;49073;42.352;23.808;2023-04-05T09:37:59;94301.53;;;3.58;67.22
62978;BME280;49073;42.352;23.808;2023-04-05T09:41:07;94303.47;;;3.40;67.75
62978;BME280;49073;42.352;23.808;2023-04-05T09:44:08;94297.09;;;3.49;68.10
62978;BME280;49073;42.352;23.808;2023-04-05T09:47:18;94304.13;;;3.67;68.33
62978;BME280;49073;42.352;23.808;2023-04-05T09:50:19;94301.59;;;3.79;68.76
62978;BME280;49073;42.352;23.808;2023-04-05T09:53:20;94292.25;;;3.82;68.52
62978;BME280;49073;42.352;23.808;2023-04-05T09:56:21;94293.97;;;3.77;68.88
62978;BME280;49073;42.352;23.808;2023-04-05T09:59:21;94285.25;;;3.64;67.87
62978;BME280;49073;42.352;23.808;2023-04-05T10:02:22;94298.94;;;3.79;68.27
62978;BME280;49073;42.352;23.808;2023-04-05T10:05:24;94284.59;;;3.68;67.91
62978;BME280;49073;42.352;23.808;2023-04-05T10:08:26;94289.31;;;3.83;68.15
62978;BME280;49073;42.352;23.808;2023-04-05T10:11:27;94292.94;;;4.00;67.42
62978;BME280;49073;42.352;23.808;2023-04-05T10:14:28;94295.38;;;4.05;66.77
62978;BME280;49073;42.352;23.808;2023-04-05T10:17:38;94287.59;;;4.08;67.23
62978;BME280;49073;42.352;23.808;2023-04-05T10:20:39;94281.00;;;4.02;66.26
62978;BME280;49073;42.352;23.808;2023-04-05T10:23:44;94276.28;;;4.08;68.35
62978;BME280;49073;42.352;23.808;2023-04-05T10:27:08;94277.53;;;4.32;67.61
62978;BME280;49073;42.352;23.808;2023-04-05T10:30:16;94284.41;;;4.24;67.16
62978;BME280;49073;42.352;23.808;2023-04-05T10:36:51;94278.47;;;4.48;65.68
62978;BME280;49073;42.352;23.808;2023-04-05T10:39:56;94287.59;;;4.72;66.99
62978;BME280;49073;42.352;23.808;2023-04-05T10:42:59;94279.69;;;4.85;63.91
62978;BME280;49073;42.352;23.808;2023-04-05T10:46:01;94287.63;;;4.85;64.50
62978;BME280;49073;42.352;23.808;2023-04-05T10:49:19;94283.03;;;4.94;65.30
62978;BME280;49073;42.352;23.808;2023-04-05T10:52:21;94283.50;;;5.21;65.96
62978;BME280;49073;42.352;23.808;2023-04-05T10:55:22;94271.81;;;5.09;64.56
62978;BME280;49073;42.352;23.808;2023-04-05T10:58:24;94276.56;;;5.04;64.71
62978;BME280;49073;42.352;23.808;2023-04-05T11:01:26;94266.47;;;5.18;64.82
62978;BME280;49073;42.352;23.808;2023-04-05T11:04:27;94275.31;;;4.89;65.20
62978;BME280;49073;42.352;23.808;2023-04-05T11:07:41;94279.28;;;4.95;64.75
62978;BME280;49073;42.352;23.808;2023-04-05T11:10:51;94276.78;;;5.11;65.80
62978;BME280;49073;42.352;23.808;2023-04-05T11:13:54;94277.09;;;5.09;64.52
62978;BME280;49073;42.352;23.808;2023-04-05T11:16:55;94277.41;;;4.95;65.05
62978;BME280;49073;42.352;23.808;2023-04-05T11:20:05;94279.84;;;5.01;64.59
62978;BME280;49073;42.352;23.808;2023-04-05T11:23:15;94277.00;;;5.06;65.77
62978;BME280;49073;42.352;23.808;2023-04-05T11:26:17;94281.41;;;5.14;65.53
62978;BME280;49073;42.352;23.808;2023-04-05T11:29:45;94290.75;;;5.12;67.02
62978;BME280;49073;42.352;23.808;2023-04-05T11:32:46;94284.63;;;4.74;65.78
62978;BME280;49073;42.352;23.808;2023-04-05T11:35:59;94287.28;;;4.53;66.15
62978;BME280;49073;42.352;23.808;2023-04-05T11:42:17;94290.56;;;4.49;68.02
62978;BME280;49073;42.352;23.808;2023-04-05T11:45:18;94285.94;;;4.25;67.53
62978;BME280;49073;42.352;23.808;2023-04-05T11:48:21;94284.94;;;4.17;69.39
62978;BME280;49073;42.352;23.808;2023-04-05T11:51:22;94288.09;;;4.02;68.08
62978;BME280;49073;42.352;23.808;2023-04-05T11:54:28;94294.94;;;4.03;68.24
62978;BME280;49073;42.352;23.808;2023-04-05T11:57:29;94287.34;;;4.01;68.74
62978;BME280;49073;42.352;23.808;2023-04-05T12:00:30;94294.28;;;3.85;67.37
62978;BME280;49073;42.352;23.808;2023-04-05T12:03:30;94297.88;;;3.80;68.31
62978;BME280;49073;42.352;23.808;2023-04-05T12:06:31;94300.53;;;3.71;67.78
62978;BME280;49073;42.352;23.808;2023-04-05T12:09:32;94296.50;;;3.74;67.69
62978;BME280;49073;42.352;23.808;2023-04-05T12:12:40;94302.69;;;3.78;67.51
62978;BME280;49073;42.352;23.808;2023-04-05T12:15:41;94304.41;;;3.74;67.06
62978;BME280;49073;42.352;23.808;2023-04-05T12:18:41;94300.41;;;3.68;66.89
62978;BME280;49073;42.352;23.808;2023-04-05T12:21:42;94311.03;;;3.80;66.97
62978;BME280;49073;42.352;23.808;2023-04-05T12:24:43;94316.56;;;3.87;66.74
62978;BME280;49073;42.352;23.808;2023-04-05T12:27:43;94308.41;;;3.80;66.36
62978;BME280;49073;42.352;23.808;2023-04-05T12:30:52;94306.53;;;3.81;66.26
62978;BME280;49073;42.352;23.808;2023-04-05T12:33:58;94298.81;;;3.75;67.22
62978;BME280;49073;42.352;23.808;2023-04-05T12:36:59;94313.63;;;3.89;68.92
62978;BME280;49073;42.352;23.808;2023-04-05T12:40:04;94309.16;;;3.81;67.22
62978;BME280;49073;42.352;23.808;2023-04-05T12:43:07;94312.03;;;3.67;66.32
62978;BME280;49073;42.352;23.808;2023-04-05T12:46:15;94309.06;;;3.68;67.79
62978;BME280;49073;42.352;23.808;2023-04-05T12:49:17;94304.63;;;3.60;66.54
62978;BME280;49073;42.352;23.808;2023-04-05T12:52:19;94301.16;;;3.68;67.03
62978;BME280;49073;42.352;23.808;2023-04-05T12:55:20;94304.25;;;3.70;66.78
62978;BME280;49073;42.352;23.808;2023-04-05T12:58:34;94306.13;;;3.70;66.29
62978;BME280;49073;42.352;23.808;2023-04-05T13:01:36;94303.81;;;3.68;66.30
62978;BME280;49073;42.352;23.808;2023-04-05T13:04:37;94301.31;;;3.72;66.39
62978;BME280;49073;42.352;23.808;2023-04-05T13:07:38;94295.13;;;3.68;67.45
62978;BME280;49073;42.352;23.808;2023-04-05T13:10:38;94305.81;;;3.71;66.34
62978;BME280;49073;42.352;23.808;2023-04-05T13:13:39;94292.78;;;3.75;67.23
62978;BME280;49073;42.352;23.808;2023-04-05T13:16:40;94303.09;;;3.89;67.73
62978;BME280;49073;42.352;23.808;2023-04-05T13:19:40;94292.13;;;3.78;65.28
62978;BME280;49073;42.352;23.808;2023-04-05T13:22:41;94286.91;;;3.99;67.04
62978;BME280;49073;42.352;23.808;2023-04-05T13:25:42;94295.63;;;3.91;65.31
62978;BME280;49073;42.352;23.808;2023-04-05T13:28:46;94290.25;;;3.78;66.28
62978;BME280;49073;42.352;23.808;2023-04-05T13:31:46;94289.47;;;3.87;66.69
62978;BME280;49073;42.352;23.808;2023-04-05T13:34:47;94280.72;;;3.95;66.45
62978;BME280;49073;42.352;23.808;2023-04-05T13:37:48;94281.56;;;3.87;65.52
62978;BME280;49073;42.352;23.808;2023-04-05T13:40:48;94290.91;;;3.75;66.51
62978;BME280;49073;42.352;23.808;2023-04-05T13:43:49;94289.47;;;3.87;66.94
62978;BME280;49073;42.352;23.808;2023-04-05T13:46:50;94289.13;;;3.88;66.90
62978;BME280;49073;42.352;23.808;2023-04-05T13:49:50;94297.38;;;3.87;66.91
62978;BME280;49073;42.352;23.808;2023-04-05T13:52:51;94287.13;;;3.85;66.41
62978;BME280;49073;42.352;23.808;2023-04-05T13:55:51;94292.00;;;3.74;66.53
62978;BME280;49073;42.352;23.808;2023-04-05T13:58:52;94289.53;;;3.69;66.78
62978;BME280;49073;42.352;23.808;2023-04-05T14:01:53;94297.22;;;3.83;67.77
62978;BME280;49073;42.352;23.808;2023-04-05T14:04:53;94298.59;;;3.89;67.61
62978;BME280;49073;42.352;23.808;2023-04-05T14:07:54;94290.13;;;3.75;67.53
62978;BME280;49073;42.352;23.808;2023-04-05T14:10:55;94292.22;;;3.60;68.22
62978;BME280;49073;42.352;23.808;2023-04-05T14:13:55;94302.97;;;3.46;67.99
62978;BME280;49073;42.352;23.808;2023-04-05T14:16:56;94306.00;;;3.27;68.98
62978;BME280;49073;42.352;23.808;2023-04-05T14:19:57;94314.88;;;3.14;69.41
62978;BME280;49073;42.352;23.808;2023-04-05T14:22:57;94308.88;;;2.96;70.07
62978;BME280;49073;42.352;23.808;2023-04-05T14:25:58;94313.97;;;2.92;70.55
62978;BME280;49073;42.352;23.808;2023-04-05T14:28:58;94310.75;;;2.86;70.31
62978;BME280;49073;42.352;23.808;2023-04-05T14:32:00;94306.69;;;2.89;71.16
62978;BME280;49073;42.352;23.808;2023-04-05T14:35:00;94309.66;;;2.96;70.15
62978;BME280;49073;42.352;23.808;2023-04-05T14:38:01;94308.97;;;3.08;71.04
62978;BME280;49073;42.352;23.808;2023-04-05T14:41:02;94308.53;;;3.06;69.89
62978;BME280;49073;42.352;23.808;2023-04-05T14:44:05;94310.81;;;3.16;69.75
62978;BME280;49073;42.352;23.808;2023-04-05T14:47:05;94316.41;;;3.15;69.17
62978;BME280;49073;42.352;23.808;2023-04-05T14:50:06;94314.53;;;3.24;68.59
62978;BME280;49073;42.352;23.808;2023-04-05T14:53:07;94318.69;;;3.34;69.86
62978;BME280;49073;42.352;23.808;2023-04-05T14:56:08;94331.06;;;3.33;69.13
62978;BME280;49073;42.352;23.808;2023-04-05T14:59:11;94327.34;;;3.34;67.80
62978;BME280;49073;42.352;23.808;2023-04-05T15:02:13;94322.25;;;3.29;67.50
62978;BME280;49073;42.352;23.808;2023-04-05T15:05:14;94327.50;;;3.29;67.93
62978;BME280;49073;42.352;23.808;2023-04-05T15:08:14;94327.66;;;3.33;68.74
62978;BME280;49073;42.352;23.808;2023-04-05T15:11:15;94322.69;;;3.40;69.07
62978;BME280;49073;42.352;23.808;2023-04-05T15:14:15;94317.25;;;3.37;67.63
62978;BME280;49073;42.352;23.808;2023-04-05T15:17:16;94320.97;;;3.35;68.24
62978;BME280;49073;42.352;23.808;2023-04-05T15:20:17;94314.44;;;3.42;67.72
62978;BME280;49073;42.352;23.808;2023-04-05T15:23:23;94329.50;;;3.41;67.75
62978;BME280;49073;42.352;23.808;2023-04-05T15:26:27;94321.78;;;3.36;68.17
62978;BME280;49073;42.352;23.808;2023-04-05T15:29:31;94322.88;;;3.26;68.79
62978;BME280;49073;42.352;23.808;2023-04-05T15:32:32;94319.81;;;3.15;68.47
62978;BME280;49073;42.352;23.808;2023-04-05T15:35:34;94322.19;;;2.90;69.18
62978;BME280;49073;42.352;23.808;2023-04-05T15:38:35;94331.50;;;2.79;69.58
62978;BME280;49073;42.352;23.808;2023-04-05T15:41:37;94345.75;;;2.69;69.96
62978;BME280;49073;42.352;23.808;2023-04-05T15:44:37;94332.13;;;2.58;69.99
62978;BME280;49073;42.352;23.808;2023-04-05T15:47:38;94355.03;;;2.58;70.45
62978;BME280;49073;42.352;23.808;2023-04-05T15:50:39;94341.88;;;2.49;70.47
62978;BME280;49073;42.352;23.808;2023-04-05T15:53:40;94349.47;;;2.51;70.13
62978;BME280;49073;42.352;23.808;2023-04-05T15:56:41;94347.59;;;2.51;70.99
62978;BME280;49073;42.352;23.808;2023-04-05T15:59:42;94346.66;;;2.47;71.43
62978;BME280;49073;42.352;23.808;2023-04-05T16:02:42;94337.84;;;2.43;71.31
62978;BME280;49073;42.352;23.808;2023-04-05T16:05:43;94345.28;;;2.50;71.14
62978;BME280;49073;42.352;23.808;2023-04-05T16:08:43;94344.03;;;2.38;71.36
62978;BME280;49073;42.352;23.808;2023-04-05T16:11:44;94339.22;;;2.23;70.57
62978;BME280;49073;42.352;23.808;2023-04-05T16:14:46;94347.88;;;2.23;71.27
62978;BME280;49073;42.352;23.808;2023-04-05T16:17:46;94347.25;;;2.09;72.09
62978;BME280;49073;42.352;23.808;2023-04-05T16:20:47;94352.94;;;2.02;71.90
62978;BME280;49073;42.352;23.808;2023-04-05T16:23:50;94349.25;;;2.03;72.26
62978;BME280;49073;42.352;23.808;2023-04-05T16:26:51;94355.09;;;1.91;72.56
62978;BME280;49073;42.352;23.808;2023-04-05T16:29:51;94358.63;;;1.86;72.47